Latest Weather Observations for Perth

IDW60901

Issued at 6:15 pm WST Wednesday 23 April 2014 (issued every 10 minutes, with the page automatically refreshed every 10 minutes)

About weather observations | Map of Perth area stations | Latest observations for Perth area | Other Formats
Station Details ID: 009225 Name: PERTH METRO Lat: -31.92 Lon: 115.87 Height: 24.9 m
Data from the previous 72 hours. | See also: Recent months at Perth
Date/Time
WST
Tmp

°C
App
Tmp
°C
Dew
Point
°C
Rel
Hum
%
Delta-T

°C
Wind Press
QNH
hPa
Press
MSL
hPa
Rain
since
9 am
mm
Dir
 
Spd
km/h
Gust
km/h
Spd
kts
Gust
kts
23/06:00pm 20.6 20.5 14.0 66 3.8 SW 7 11 4 6 1013.6 1013.6 0.0
23/05:30pm 21.0 20.7 13.4 62 4.4 SW 7 13 4 7 1013.4 - 0.0
23/05:00pm 22.2 21.0 12.7 55 5.4 SW 11 19 6 10 1013.3 - 0.0
23/04:30pm 23.2 21.4 12.2 50 6.2 SSW 13 20 7 11 1013.3 - 0.0
23/04:00pm 24.0 21.6 11.3 45 7.1 SW 15 20 8 11 1013.4 - 0.0
23/03:30pm 24.9 22.6 10.4 40 8.1 SW 13 20 7 11 1013.4 - 0.0
23/03:00pm 25.2 23.2 8.7 35 8.9 S 9 24 5 13 1013.6 1013.6 0.0
23/02:30pm 25.3 22.4 8.3 34 9.1 SSW 13 19 7 10 1013.8 - 0.0
23/02:00pm 25.0 23.1 8.9 36 8.7 S 9 17 5 9 1013.9 - 0.0
23/01:30pm 24.0 21.8 8.0 36 8.5 S 9 17 5 9 1014.3 - 0.0
23/01:00pm 24.0 21.9 8.4 37 8.3 SSE 9 13 5 7 1014.9 - 0.0
23/12:30pm 23.1 20.1 7.6 37 8.1 S 13 20 7 11 1015.6 - 0.0
23/12:00pm 22.2 19.1 8.7 42 7.2 S 15 20 8 11 1016.1 1016.0 0.0
23/11:30am 21.3 18.1 8.6 44 6.7 S 15 22 8 12 1016.5 - 0.0
23/11:00am 21.4 19.1 9.0 45 6.6 SSE 11 20 6 11 1016.9 - 0.0
23/10:30am 20.5 17.7 8.5 46 6.3 SSE 13 28 7 15 1017.3 - 0.0
23/10:00am 19.6 17.1 9.8 53 5.2 SSE 13 17 7 9 1017.6 - 0.0
23/09:30am 17.8 16.0 9.4 58 4.4 SSE 9 17 5 9 1018.3 - 0.0
23/09:00am 16.8 14.6 9.2 61 3.9 SSE 11 15 6 8 1018.6 1018.5 0.0
23/08:30am 15.4 13.9 9.3 67 3.1 SSE 7 11 4 6 1018.6 - 0.0
23/08:00am 13.5 13.9 11.4 87 1.1 CALM 0 0 0 0 1018.2 - 0.0
23/07:30am 9.9 9.7 9.0 94 0.4 CALM 0 0 0 0 1017.9 - 0.0
23/07:00am 9.1 8.6 7.9 92 0.6 CALM 0 0 0 0 1017.7 - 0.0
23/06:30am 9.4 9.0 8.2 92 0.6 CALM 0 0 0 0 1017.7 - 0.0
23/06:00am 9.6 9.1 8.0 90 0.8 SE 0 0 0 0 1017.7 1017.6 0.0
23/05:30am 10.0 9.6 8.3 89 0.8 CALM 0 0 0 0 1017.8 - 0.0
23/05:00am 11.0 10.7 8.6 85 1.2 CALM 0 0 0 0 1017.8 - 0.0
23/04:30am 12.2 11.2 8.9 80 1.7 SE 4 9 2 5 1017.5 - 0.0
23/04:00am 13.2 11.2 8.7 74 2.3 SSE 9 13 5 7 1017.4 - 0.0
23/03:30am 13.7 11.4 9.0 73 2.4 SSE 11 15 6 8 1017.6 - 0.0
23/03:00am 13.9 11.6 8.9 72 2.5 SSE 11 17 6 9 1017.8 1017.7 0.0
23/02:30am 14.0 12.1 9.0 72 2.5 S 9 15 5 8 1018.0 - 0.0
23/02:00am 14.1 12.3 9.3 73 2.5 S 9 13 5 7 1017.8 - 0.0
23/01:30am 14.6 12.5 9.6 72 2.6 S 11 17 6 9 1017.8 - 0.0
23/01:00am 14.9 12.8 9.7 71 2.7 S 11 20 6 11 1017.6 - 0.0
23/12:30am 15.2 13.1 9.8 70 2.8 S 11 19 6 10 1017.6 - 0.0
23/12:00am 15.1 13.4 9.7 70 2.8 S 9 17 5 9 1017.8 1017.7 0.0
 
Date/Time
WST
Tmp

°C
App
Tmp
°C
Dew
Point
°C
Rel
Hum
%
Delta-T

°C
Wind Press
QNH
hPa
Press
MSL
hPa
Rain
since
9 am
mm
Dir
 
Spd
km/h
Gust
km/h
Spd
kts
Gust
kts
22/11:30pm 15.4 13.2 9.5 68 3.1 S 11 17 6 9 1018.2 - 0.0
22/11:00pm 15.5 13.7 9.4 67 3.2 S 9 19 5 10 1018.3 - 0.0
22/10:30pm 16.0 13.8 9.4 65 3.4 S 11 17 6 9 1018.7 - 0.0
22/10:00pm 16.0 13.8 9.4 65 3.4 S 11 19 6 10 1018.7 - 0.0
22/09:30pm 16.1 14.3 9.5 65 3.4 S 9 15 5 8 1018.9 - 0.0
22/09:00pm 16.6 14.4 9.5 63 3.7 S 11 20 6 11 1018.8 1018.7 0.0
22/08:30pm 17.1 14.5 9.5 61 4.0 SSE 13 19 7 10 1018.4 - 0.0
22/08:00pm 17.4 15.2 9.3 59 4.2 S 11 15 6 8 1018.8 - 0.0
22/07:30pm 17.9 14.9 9.3 57 4.5 S 15 28 8 15 1018.7 - 0.0
22/07:00pm 18.1 15.4 8.9 55 4.8 SSW 13 20 7 11 1018.2 - 0.0
22/06:30pm 18.3 15.6 8.8 54 4.9 SSW 13 20 7 11 1017.4 - 0.0
22/06:00pm 18.7 16.2 8.1 50 5.4 SSW 11 17 6 9 1017.3 1017.2 0.0
22/05:30pm 19.3 17.1 7.7 47 5.9 SSW 9 17 5 9 1017.2 - 0.0
22/05:00pm 20.2 16.4 7.6 44 6.5 SW 17 26 9 14 1017.3 - 0.0
22/04:30pm 20.9 17.6 8.2 44 6.6 SSW 15 24 8 13 1017.5 - 0.0
22/04:00pm 21.3 18.0 7.9 42 7.0 SSW 15 26 8 14 1017.5 - 0.0
22/03:30pm 21.7 17.4 7.2 39 7.5 SW 19 26 10 14 1017.6 - 0.0
22/03:00pm 21.8 17.7 8.0 41 7.2 SSW 19 28 10 15 1017.7 1017.6 0.0
22/02:30pm 22.6 19.6 7.6 38 7.8 SW 13 24 7 13 1017.8 - 0.0
22/02:00pm 22.8 19.2 6.6 35 8.3 SW 15 24 8 13 1017.8 - 0.0
22/01:30pm 23.1 19.7 7.6 37 8.1 SW 15 22 8 12 1018.1 - 0.0
22/01:00pm 22.5 19.0 7.1 37 8.0 WSW 15 22 8 12 1018.5 - 0.0
22/12:30pm 22.7 20.0 7.3 37 8.0 WSW 11 19 6 10 1019.0 - 0.0
22/12:00pm 23.0 20.6 4.5 30 9.1 SSW 6 17 3 9 1019.4 1019.3 0.0
22/11:30am 22.1 19.7 5.1 33 8.4 SE 7 11 4 6 1019.8 - 0.0
22/11:00am 21.7 20.1 6.4 37 7.8 NW 4 9 2 5 1020.3 - 0.0
22/10:30am 20.9 19.2 7.5 42 6.9 SE 6 11 3 6 1020.6 - 0.0
22/10:00am 20.1 19.6 7.8 45 6.3 CALM 0 4 0 2 1021.0 - 0.0
22/09:30am 18.8 17.2 7.9 49 5.6 ENE 6 11 3 6 1021.2 - 0.0
22/09:00am 16.7 14.6 6.8 52 4.9 ENE 7 11 4 6 1021.3 1021.3 0.0
22/08:30am 15.4 13.4 7.2 58 4.0 ENE 7 13 4 7 1021.2 - 0.0
22/08:00am 13.9 12.0 6.5 61 3.6 E 6 11 3 6 1021.0 - 0.0
22/07:30am 11.7 9.5 6.4 70 2.5 E 7 11 4 6 1020.8 - 0.0
22/07:00am 11.0 8.8 6.0 71 2.3 E 7 13 4 7 1020.6 - 0.0
22/06:30am 11.1 8.9 6.0 71 2.4 E 7 13 4 7 1020.4 - 0.0
22/06:00am 9.1 7.1 7.2 88 0.9 NE 7 11 4 6 1020.2 1020.2 0.0
22/05:30am 7.9 7.2 7.1 95 0.4 CALM 0 0 0 0 1020.1 - 0.0
22/05:00am 8.2 7.6 7.4 95 0.4 CALM 0 0 0 0 1020.0 - 0.0
22/04:30am 8.6 8.1 7.8 95 0.4 CALM 0 0 0 0 1020.0 - 0.0
22/04:00am 8.8 8.3 8.0 95 0.4 CALM 0 0 0 0 1019.8 - 0.0
22/03:30am 9.1 8.7 8.2 94 0.4 CALM 0 0 0 0 1019.7 - 0.0
22/03:00am 9.6 9.3 8.7 94 0.4 CALM 0 0 0 0 1019.8 1019.8 0.0
22/02:30am 9.8 9.6 8.9 94 0.4 CALM 0 0 0 0 1019.7 - 0.0
22/02:00am 10.1 9.9 8.9 92 0.6 CALM 0 0 0 0 1019.8 - 0.0
22/01:30am 10.6 10.4 9.2 91 0.7 CALM 0 0 0 0 1019.9 - 0.0
22/01:00am 11.2 11.1 9.3 88 1.0 CALM 0 0 0 0 1019.8 - 0.0
22/12:30am 11.8 11.7 9.5 86 1.2 CALM 0 0 0 0 1019.9 - 0.0
22/12:00am 12.5 12.5 9.7 83 1.4 CALM 0 0 0 0 1020.1 1020.1 0.0
 
Date/Time
WST
Tmp

°C
App
Tmp
°C
Dew
Point
°C
Rel
Hum
%
Delta-T

°C
Wind Press
QNH
hPa
Press
MSL
hPa
Rain
since
9 am
mm
Dir
 
Spd
km/h
Gust
km/h
Spd
kts
Gust
kts
21/11:30pm 14.0 12.7 9.2 73 2.4 SSE 6 7 3 4 1020.3 - 0.0
21/11:00pm 15.1 13.4 9.7 70 2.8 S 9 13 5 7 1020.5 - 0.0
21/10:30pm 15.6 13.9 9.7 68 3.1 SSE 9 15 5 8 1020.6 - 0.0
21/10:00pm 16.1 14.1 10.0 67 3.2 S 11 15 6 8 1020.7 - 0.0
21/09:30pm 16.4 14.0 10.0 66 3.4 S 13 19 7 10 1020.9 - 0.0
21/09:00pm 16.8 14.4 10.2 65 3.5 S 13 22 7 12 1020.9 1020.9 0.0
21/08:30pm 17.3 14.6 10.2 63 3.8 S 15 22 8 12 1020.9 - 0.0
21/08:00pm 17.3 15.3 10.2 63 3.8 S 11 19 6 10 1020.7 - 0.0
21/07:30pm 17.7 15.6 9.8 60 4.2 S 11 19 6 10 1020.4 - 0.0
21/07:00pm 18.3 15.5 9.9 58 4.5 S 15 22 8 12 1020.0 - 0.0
21/06:30pm 18.5 16.4 9.8 57 4.6 SSW 11 20 6 11 1019.4 - 0.0
21/06:00pm 19.0 16.4 9.5 54 5.0 SW 13 24 7 13 1019.0 1018.9 0.0
21/05:30pm 19.3 16.5 10.0 55 5.0 SSW 15 24 8 13 1018.8 - 0.0
21/05:00pm 19.9 16.7 10.0 53 5.3 SSW 17 28 9 15 1018.5 - 0.0
21/04:30pm 20.9 17.4 8.9 46 6.3 SW 17 28 9 15 1018.5 - 0.0
21/04:00pm 21.2 17.8 9.1 46 6.4 SSW 17 28 9 15 1018.6 - 0.0
21/03:30pm 22.0 18.8 8.5 42 7.1 SSW 15 24 8 13 1018.6 - 0.0
21/03:00pm 22.6 19.1 8.7 41 7.4 SW 17 26 9 14 1018.4 1018.3 0.0
21/02:30pm 22.2 19.2 9.4 44 6.9 SW 15 24 8 13 1018.4 - 0.0
21/02:00pm 22.0 18.5 7.4 39 7.6 S 15 26 8 14 1018.4 - 0.0
21/01:30pm 22.6 20.6 6.4 35 8.3 SSE 6 13 3 7 1018.4 - 0.0
21/01:00pm 21.3 18.0 6.4 38 7.5 S 13 24 7 13 1018.6 - 0.0
21/12:30pm 21.2 18.7 6.7 39 7.4 SE 9 17 5 9 1019.0 - 0.0
21/12:00pm 21.1 18.4 7.3 41 7.1 SSW 11 19 6 10 1019.2 1019.1 0.0
21/11:30am 20.5 17.3 6.8 41 6.9 S 13 20 7 11 1019.4 - 0.0
21/11:00am 20.4 18.5 7.4 43 6.7 SE 7 17 4 9 1019.8 - 0.0
21/10:30am 19.7 17.0 9.0 50 5.6 SSE 13 22 7 12 1019.8 - 0.0
21/10:00am 19.3 16.5 8.6 50 5.6 SSE 13 17 7 9 1019.9 - 0.0
21/09:30am 18.5 17.0 10.6 60 4.3 SE 9 15 5 8 1020.0 - 0.0
21/09:00am 17.2 15.2 10.1 63 3.7 SE 11 17 6 9 1019.9 1019.9 0.0
21/08:30am 15.7 14.4 10.0 69 3.0 SSE 7 13 4 7 1019.8 - 0.0
21/08:00am 14.7 13.9 10.9 78 2.0 SE 6 9 3 5 1019.6 - 0.0
21/07:30am 12.7 12.4 10.2 85 1.3 ESE 2 7 1 4 1019.2 - 0.0
21/07:00am 12.3 11.2 9.9 85 1.2 SSE 6 9 3 5 1018.9 - 0.0
21/06:30am 12.9 11.3 10.3 84 1.3 SSE 9 15 5 8 1018.8 - 0.0
21/06:00am 13.0 11.0 10.2 83 1.4 S 11 15 6 8 1018.5 1018.4 0.0
21/05:30am 12.9 11.9 10.3 84 1.3 S 6 9 3 5 1018.4 - 0.0
21/05:00am 13.4 11.4 10.2 81 1.7 S 11 19 6 10 1018.0 - 0.0
21/04:30am 13.7 11.8 10.5 81 1.7 SSE 11 17 6 9 1017.5 - 0.0
21/04:00am 13.8 12.3 10.4 80 1.8 SSE 9 15 5 8 1017.0 - 0.0
21/03:30am 14.0 12.6 10.8 81 1.7 S 9 13 5 7 1016.8 - 0.0
21/03:00am 14.3 13.2 10.7 79 1.9 SSE 7 11 4 6 1016.8 1016.7 0.0
21/02:30am 14.5 13.1 10.9 79 1.9 S 9 11 5 6 1016.7 - 0.0
21/02:00am 14.6 13.2 11.0 79 1.9 SSE 9 11 5 6 1016.5 - 0.0
21/01:30am 15.0 13.6 11.0 77 2.1 S 9 13 5 7 1016.4 - 0.0
21/01:00am 15.3 14.0 11.1 76 2.2 S 9 17 5 9 1016.3 - 0.0
21/12:30am 15.6 13.8 11.0 74 2.5 S 11 15 6 8 1016.0 - 0.0
21/12:00am 16.0 14.7 11.4 74 2.5 S 9 15 5 8 1015.8 1015.7 0.0
 
Date/Time
WST
Tmp

°C
App
Tmp
°C
Dew
Point
°C
Rel
Hum
%
Delta-T

°C
Wind Press
QNH
hPa
Press
MSL
hPa
Rain
since
9 am
mm
Dir
 
Spd
km/h
Gust
km/h
Spd
kts
Gust
kts
20/11:30pm 16.3 14.7 11.5 73 2.6 S 11 19 6 10 1015.8 - 0.0
20/11:00pm 16.6 14.9 11.3 71 2.9 S 11 19 6 10 1015.7 - 0.0
20/10:30pm 17.1 15.5 11.4 69 3.1 S 11 17 6 9 1015.5 - 0.0
20/10:00pm 17.3 15.7 11.6 69 3.1 S 11 17 6 9 1015.4 - 0.0
20/09:30pm 17.7 16.2 11.9 69 3.2 S 11 17 6 9 1015.3 - 0.0
20/09:00pm 18.1 16.7 12.1 68 3.3 S 11 17 6 9 1014.8 1014.7 0.0
20/08:30pm 18.4 17.1 12.4 68 3.3 S 11 17 6 9 1014.7 - 0.0
20/08:00pm 18.5 17.6 12.7 69 3.2 S 9 15 5 8 1014.4 - 0.0
20/07:30pm 18.7 17.0 12.5 67 3.5 S 13 22 7 12 1014.1 - 0.0
20/07:00pm 19.1 17.4 12.4 65 3.7 S 13 22 7 12 1013.9 - 0.0
20/06:30pm 19.4 17.7 12.4 64 3.9 SSW 13 26 7 14 1013.7 - 0.0

Latest Capital City Observations: Canberra | Sydney | Melbourne | Brisbane | Adelaide | Perth | Hobart | Darwin

Other Formats:

Comma delimited format used in spreadsheet applications
http://www.bom.gov.au/fwo/IDW60901/IDW60901.94608.axf

JavaScript Object Notation format (JSON) in row-major order
http://www.bom.gov.au/fwo/IDW60901/IDW60901.94608.json